createdAt,value
2017-12-08T00:00:48.114Z,31.13
2017-12-08T00:03:16.543Z,30.67
2017-12-08T00:05:45.774Z,41.80
2017-12-08T00:08:14.222Z,33.40
2017-12-08T00:10:43.418Z,27.97
2017-12-08T00:13:11.898Z,25.07
2017-12-08T00:15:41.087Z,34.67
2017-12-08T00:18:10.300Z,22.43
2017-12-08T00:20:39.003Z,22.87
2017-12-08T00:23:07.430Z,33.47
2017-12-08T00:25:35.867Z,32.93
2017-12-08T00:28:04.343Z,35.83
2017-12-08T00:30:32.774Z,31.27
2017-12-08T00:33:01.207Z,27.70
2017-12-08T00:35:29.698Z,31.67
2017-12-08T00:37:58.122Z,21.17
2017-12-08T00:40:26.551Z,29.40
2017-12-08T00:42:55.218Z,39.37
2017-12-08T00:45:23.941Z,49.73
2017-12-08T00:47:52.576Z,54.93
2017-12-08T00:50:22.493Z,56.63
2017-12-08T00:52:51.161Z,61.83
2017-12-08T00:55:20.582Z,63.63
2017-12-08T00:57:49.351Z,63.33
2017-12-08T01:00:18.764Z,58.33
2017-12-08T01:02:48.211Z,50.60
2017-12-08T01:05:16.953Z,48.90
2017-12-08T01:07:46.273Z,42.43
2017-12-08T01:10:14.891Z,37.40
2017-12-08T01:12:43.630Z,45.53
2017-12-08T01:15:12.323Z,47.37
2017-12-08T01:17:41.045Z,52.60
2017-12-08T01:20:10.681Z,54.10
2017-12-08T01:22:39.448Z,56.40
2017-12-08T01:25:08.134Z,47.37
2017-12-08T01:27:36.918Z,41.90
2017-12-08T01:30:05.703Z,49.93
2017-12-08T01:32:34.390Z,70.40
2017-12-08T01:35:03.340Z,38.93
2017-12-08T01:37:31.195Z,48.13
2017-12-08T01:40:00.655Z,41.77
2017-12-08T01:42:29.746Z,41.13
2017-12-08T01:44:58.336Z,39.63
2017-12-08T01:47:27.037Z,40.47
2017-12-08T01:49:55.723Z,42.53
2017-12-08T01:52:24.439Z,43.63
2017-12-08T01:54:54.012Z,47.53
2017-12-08T01:57:22.700Z,39.97
2017-12-08T01:59:51.473Z,42.60
2017-12-08T02:02:20.155Z,41.07
2017-12-08T02:04:49.052Z,33.83
2017-12-08T02:07:17.839Z,47.10
2017-12-08T02:09:46.533Z,37.67
2017-12-08T02:12:15.251Z,32.77
2017-12-08T02:14:44.722Z,43.70
2017-12-08T02:17:13.415Z,40.47
2017-12-08T02:19:42.133Z,44.47
2017-12-08T02:22:11.601Z,44.80
2017-12-08T02:24:40.293Z,40.80
2017-12-08T02:27:09.472Z,40.80
2017-12-08T02:29:38.176Z,49.73
2017-12-08T02:32:06.847Z,61.40
2017-12-08T02:34:35.947Z,54.93
2017-12-08T02:37:04.731Z,46.20
2017-12-08T02:39:33.514Z,45.43
2017-12-08T02:42:02.310Z,50.10
2017-12-08T02:44:31.085Z,44.33
2017-12-08T02:46:59.782Z,51.83
2017-12-08T02:49:28.774Z,56.13
2017-12-08T02:51:57.558Z,55.23
2017-12-08T02:54:26.301Z,73.00
2017-12-08T02:56:55.822Z,72.43
2017-12-08T02:59:24.442Z,74.03
2017-12-08T03:01:53.125Z,73.40
2017-12-08T03:04:22.100Z,37.20
2017-12-08T03:06:50.803Z,28.97
2017-12-08T03:09:19.435Z,32.53
2017-12-08T03:11:49.052Z,35.90
2017-12-08T03:14:17.784Z,31.80
2017-12-08T03:16:46.463Z,24.43
2017-12-08T03:19:15.531Z,22.03
2017-12-08T03:21:44.199Z,28.50
2017-12-08T03:24:13.667Z,22.30
2017-12-08T03:26:42.342Z,21.23
2017-12-08T03:29:11.027Z,17.63
2017-12-08T03:31:39.719Z,18.47
2017-12-08T03:34:08.437Z,21.97
2017-12-08T03:36:37.927Z,17.57
2017-12-08T03:39:06.693Z,18.10
2017-12-08T03:41:35.565Z,16.33
2017-12-08T03:44:04.280Z,37.63
2017-12-08T03:46:32.972Z,31.47
2017-12-08T03:49:01.942Z,39.27
2017-12-08T03:51:30.736Z,40.23
2017-12-08T03:53:59.428Z,32.27
2017-12-08T03:56:28.208Z,37.63
2017-12-08T03:58:56.892Z,36.00
2017-12-08T04:01:25.631Z,33.27
2017-12-08T04:03:54.523Z,31.40
2017-12-08T04:06:23.971Z,37.43
2017-12-08T04:08:52.656Z,34.43
2017-12-08T04:11:21.452Z,32.97
2017-12-08T04:13:50.144Z,33.50
2017-12-08T04:16:18.911Z,146.53
2017-12-08T04:18:47.916Z,63.67
2017-12-08T04:21:16.622Z,29.47
2017-12-08T04:23:45.386Z,30.13
2017-12-08T04:26:14.106Z,30.73
2017-12-08T04:28:42.750Z,27.80
2017-12-08T04:31:11.392Z,22.77
2017-12-08T04:33:40.065Z,24.50
2017-12-08T04:36:08.756Z,26.97
2017-12-08T04:38:37.535Z,27.47
2017-12-08T04:41:06.584Z,34.10
2017-12-08T04:43:36.056Z,21.77
2017-12-08T04:46:04.772Z,20.50
2017-12-08T04:48:34.240Z,35.87
2017-12-08T04:51:02.957Z,23.40
2017-12-08T04:53:32.415Z,40.03
2017-12-08T04:56:01.174Z,41.13
2017-12-08T04:58:29.832Z,27.37
2017-12-08T05:00:59.330Z,25.40
2017-12-08T05:03:29.308Z,33.00
2017-12-08T05:05:58.104Z,25.40
2017-12-08T05:08:26.791Z,33.40
2017-12-08T05:10:55.823Z,39.43
2017-12-08T05:13:25.281Z,37.07
2017-12-08T05:15:54.006Z,40.27
2017-12-08T05:18:22.862Z,45.20
2017-12-08T05:20:51.594Z,23.17
2017-12-08T05:23:21.062Z,22.60
2017-12-08T05:25:49.323Z,25.13
2017-12-08T05:28:18.010Z,24.93
2017-12-08T05:30:46.735Z,23.87
2017-12-08T05:33:16.258Z,43.87
2017-12-08T05:35:44.990Z,41.90
2017-12-08T05:38:13.690Z,33.37
2017-12-08T05:40:42.378Z,31.50
2017-12-08T05:43:11.147Z,34.83
2017-12-08T05:45:39.732Z,52.87
2017-12-08T05:48:08.728Z,71.00
2017-12-08T05:50:37.520Z,100.97
2017-12-08T05:53:06.248Z,97.40
2017-12-08T05:55:35.737Z,95.93
2017-12-08T05:58:04.432Z,94.97
2017-12-08T06:00:33.999Z,114.40
2017-12-08T06:03:03.168Z,105.67
2017-12-08T06:05:31.888Z,100.03
2017-12-08T06:08:00.572Z,92.50
2017-12-08T06:10:31.107Z,86.17
2017-12-08T06:12:59.839Z,93.53
2017-12-08T06:15:28.507Z,149.47
2017-12-08T06:17:59.145Z,124.03
2017-12-08T06:20:28.667Z,121.60
2017-12-08T06:22:57.393Z,137.60
2017-12-08T06:25:26.189Z,143.83
2017-12-08T06:27:54.896Z,164.63
2017-12-08T06:30:23.660Z,155.17
2017-12-08T06:32:52.356Z,181.03
2017-12-08T06:35:21.131Z,180.37
2017-12-08T06:37:49.718Z,187.07
2017-12-08T06:40:18.501Z,225.83
2017-12-08T06:42:47.187Z,259.43
2017-12-08T06:45:15.820Z,309.23
2017-12-08T06:47:45.284Z,294.70
2017-12-08T06:50:14.030Z,263.33
2017-12-08T06:52:42.756Z,199.77
2017-12-08T06:55:11.955Z,190.03
2017-12-08T06:57:40.630Z,163.40
2017-12-08T07:00:09.327Z,135.47
2017-12-08T07:02:38.494Z,153.57
2017-12-08T07:05:07.045Z,56.47
2017-12-08T07:07:35.752Z,51.20
2017-12-08T07:10:04.698Z,43.87
2017-12-08T07:12:34.162Z,40.27
2017-12-08T07:15:03.253Z,17.13
2017-12-08T07:17:32.039Z,20.20
2017-12-08T07:20:00.724Z,18.97
2017-12-08T07:22:29.464Z,21.50
2017-12-08T07:24:58.453Z,25.83
2017-12-08T07:27:27.911Z,27.97
2017-12-08T07:29:56.696Z,25.50
2017-12-08T07:32:25.299Z,13.60
2017-12-08T07:34:54.068Z,15.77
2017-12-08T07:37:22.766Z,13.67
2017-12-08T07:39:51.485Z,13.33
2017-12-08T07:42:21.050Z,10.90
2017-12-08T07:44:49.748Z,12.67
2017-12-08T07:47:18.517Z,19.97
2017-12-08T07:49:47.107Z,19.43
2017-12-08T07:52:15.889Z,15.70
2017-12-08T07:54:44.682Z,20.30
2017-12-08T07:57:13.370Z,19.50
2017-12-08T07:59:42.056Z,19.03
2017-12-08T08:02:10.742Z,17.87
2017-12-08T08:04:39.409Z,27.23
2017-12-08T08:07:08.113Z,53.63
2017-12-08T08:09:36.949Z,20.57
2017-12-08T08:12:06.396Z,26.73
2017-12-08T08:14:35.192Z,40.93
2017-12-08T08:17:03.926Z,22.73
2017-12-08T08:19:33.386Z,26.87
2017-12-08T08:22:02.172Z,24.27
2017-12-08T08:24:30.914Z,24.90
2017-12-08T08:26:59.641Z,23.97
2017-12-08T08:29:28.277Z,22.97
2017-12-08T08:31:57.935Z,22.63
2017-12-08T08:34:26.730Z,20.20
2017-12-08T08:36:55.514Z,19.40
2017-12-08T08:39:24.487Z,16.27
2017-12-08T08:41:53.229Z,19.00
2017-12-08T08:44:22.697Z,21.20
2017-12-08T08:46:51.443Z,21.73
2017-12-08T08:49:20.173Z,18.67
2017-12-08T08:51:48.878Z,34.77
2017-12-08T08:54:17.569Z,35.07
2017-12-08T08:56:46.161Z,22.70
2017-12-08T08:59:15.628Z,23.27
2017-12-08T09:01:44.622Z,18.03
2017-12-08T09:04:13.207Z,22.30
2017-12-08T09:06:41.909Z,16.57
2017-12-08T09:09:10.987Z,32.17
2017-12-08T09:11:39.573Z,17.30
2017-12-08T09:14:08.358Z,18.30
2017-12-08T09:16:37.053Z,19.33
2017-12-08T09:19:05.744Z,23.97
2017-12-08T09:21:34.316Z,20.57
2017-12-08T09:24:03.059Z,19.83
2017-12-08T09:26:31.689Z,24.83
2017-12-08T09:29:00.472Z,21.83
2017-12-08T09:31:29.356Z,19.63
2017-12-08T09:33:58.055Z,19.43
2017-12-08T09:36:26.773Z,16.13
2017-12-08T09:38:56.292Z,19.17
2017-12-08T09:41:25.708Z,20.03
2017-12-08T09:43:54.431Z,20.70
2017-12-08T09:46:23.118Z,20.47
2017-12-08T09:48:51.833Z,16.33
2017-12-08T09:51:20.501Z,15.67
2017-12-08T09:53:49.280Z,21.30
2017-12-08T09:56:17.970Z,16.30
2017-12-08T09:58:46.755Z,18.13
2017-12-08T10:01:15.747Z,20.77
2017-12-08T10:03:44.445Z,14.33
2017-12-08T10:06:13.138Z,16.40
2017-12-08T10:08:41.808Z,19.60
2017-12-08T10:11:10.498Z,19.27
2017-12-08T10:13:39.242Z,17.73
2017-12-08T10:16:08.006Z,29.60
2017-12-08T10:18:37.501Z,22.57
2017-12-08T10:21:07.079Z,27.27
2017-12-08T10:23:35.862Z,21.27
2017-12-08T10:26:05.410Z,19.37
2017-12-08T10:28:34.097Z,22.63
2017-12-08T10:31:02.788Z,21.83
2017-12-08T10:33:31.468Z,46.50
2017-12-08T10:36:00.153Z,24.03
2017-12-08T10:38:28.948Z,20.30
2017-12-08T10:40:57.738Z,19.43
2017-12-08T10:43:26.419Z,27.10
2017-12-08T10:45:55.104Z,19.90
2017-12-08T10:48:23.842Z,24.40
2017-12-08T10:50:52.413Z,20.60
2017-12-08T10:53:21.986Z,25.80
2017-12-08T10:55:50.683Z,20.23
2017-12-08T10:58:19.466Z,21.00
2017-12-08T11:00:48.547Z,20.43
2017-12-08T11:03:17.344Z,20.17
2017-12-08T11:05:46.118Z,21.07
2017-12-08T11:08:15.219Z,23.73
2017-12-08T11:10:43.811Z,22.47
2017-12-08T11:13:12.493Z,19.50
2017-12-08T11:15:41.989Z,23.37
2017-12-08T11:18:11.340Z,20.73
2017-12-08T11:20:40.139Z,22.93
2017-12-08T11:23:09.326Z,20.50
2017-12-08T11:25:38.013Z,29.27
2017-12-08T11:28:06.701Z,23.23
2017-12-08T11:30:35.401Z,27.20
2017-12-08T11:33:04.111Z,25.53
2017-12-08T11:35:33.580Z,26.00
2017-12-08T11:38:02.327Z,34.17
2017-12-08T11:40:30.994Z,30.53
2017-12-08T11:43:00.352Z,28.90
2017-12-08T11:45:29.101Z,33.57
2017-12-08T11:47:58.598Z,41.30
2017-12-08T11:50:27.328Z,33.93
2017-12-08T11:52:56.124Z,24.80
2017-12-08T11:55:24.798Z,16.77
2017-12-08T11:57:53.441Z,15.03
2017-12-08T12:00:22.993Z,13.83
2017-12-08T12:02:51.579Z,9.20
2017-12-08T12:05:20.276Z,16.23
2017-12-08T12:07:49.113Z,16.30
2017-12-08T12:10:18.461Z,12.20
2017-12-08T12:12:47.036Z,11.00
2017-12-08T12:15:15.998Z,12.80
2017-12-08T12:17:44.715Z,16.57
2017-12-08T12:20:13.357Z,12.23
2017-12-08T12:22:42.375Z,11.97
2017-12-08T12:25:11.043Z,12.23
2017-12-08T12:27:39.710Z,22.87
2017-12-08T12:30:09.328Z,14.20
2017-12-08T12:32:38.058Z,13.80
2017-12-08T12:35:06.645Z,20.63
2017-12-08T12:37:35.639Z,14.80
2017-12-08T12:40:05.097Z,12.00
2017-12-08T12:42:34.493Z,17.20
2017-12-08T12:45:03.959Z,16.63
2017-12-08T12:47:32.741Z,70.07
2017-12-08T12:50:01.427Z,464.50
2017-12-08T12:52:30.211Z,254.20
2017-12-08T12:54:58.897Z,69.00
2017-12-08T12:57:27.478Z,41.10
2017-12-08T12:59:56.170Z,30.57
2017-12-08T13:02:24.855Z,23.63
2017-12-08T13:04:53.433Z,20.67
2017-12-08T13:07:22.037Z,78.63
2017-12-08T13:09:50.814Z,111.90
2017-12-08T13:12:19.531Z,39.53
2017-12-08T13:14:49.003Z,18.13
2017-12-08T13:17:17.698Z,17.43
2017-12-08T13:19:46.414Z,18.93
2017-12-08T13:22:15.931Z,76.13
2017-12-08T13:24:44.624Z,183.27
2017-12-08T13:27:13.343Z,104.80
2017-12-08T13:29:42.385Z,61.73
2017-12-08T13:32:11.802Z,46.13
2017-12-08T13:34:41.150Z,9.93
2017-12-08T13:37:10.290Z,14.67
2017-12-08T13:39:39.749Z,21.80
2017-12-08T13:42:08.535Z,12.30
2017-12-08T13:44:37.469Z,12.17
2017-12-08T13:47:06.926Z,10.63
2017-12-08T13:49:35.580Z,9.77
2017-12-08T13:52:04.606Z,10.07
2017-12-08T13:54:50.941Z,13.67
2017-12-08T13:57:20.826Z,23.80
2017-12-08T13:59:49.453Z,15.87
2017-12-08T14:02:18.917Z,34.87
2017-12-08T14:04:47.887Z,68.10
2017-12-08T14:07:17.409Z,63.30
2017-12-08T14:09:46.200Z,53.97
2017-12-08T14:12:14.946Z,39.63
2017-12-08T14:14:44.409Z,36.30
2017-12-08T14:17:13.102Z,36.57
2017-12-08T14:19:42.946Z,47.37
2017-12-08T14:22:11.689Z,59.83
2017-12-08T14:24:40.381Z,59.93
2017-12-08T14:27:09.300Z,41.87
2017-12-08T14:29:38.758Z,50.27
2017-12-08T14:32:07.444Z,47.33
2017-12-08T14:34:36.436Z,39.10
2017-12-08T14:37:05.168Z,36.63
2017-12-08T14:39:34.590Z,49.67
2017-12-08T14:42:03.318Z,52.97
2017-12-08T14:44:31.951Z,48.07
2017-12-08T14:47:01.669Z,83.23
2017-12-08T14:49:30.663Z,257.40
2017-12-08T14:51:59.387Z,266.33
2017-12-08T14:54:28.075Z,195.80
2017-12-08T14:56:56.961Z,165.60
2017-12-08T14:59:25.654Z,128.53
2017-12-08T15:01:54.325Z,116.67
2017-12-08T15:04:23.166Z,96.87
2017-12-08T15:06:52.588Z,143.50
2017-12-08T15:09:21.319Z,153.37
2017-12-08T15:11:50.152Z,199.20
2017-12-08T15:14:19.617Z,142.37
2017-12-08T15:16:48.359Z,163.53
2017-12-08T15:19:17.148Z,168.67
2017-12-08T15:21:45.877Z,180.97
2017-12-08T15:24:14.563Z,217.50
2017-12-08T15:26:43.446Z,220.83
2017-12-08T15:29:12.242Z,265.47
2017-12-08T15:31:40.912Z,250.63
2017-12-08T15:34:09.659Z,329.37
2017-12-08T15:36:39.123Z,361.37
2017-12-08T15:39:07.907Z,456.73
2017-12-08T15:41:36.791Z,420.33
2017-12-08T15:44:05.586Z,416.17
2017-12-08T15:46:34.298Z,476.57
2017-12-08T15:49:03.981Z,460.13
2017-12-08T15:51:32.872Z,451.93
2017-12-08T15:54:01.657Z,450.27
2017-12-08T15:56:30.395Z,472.87
2017-12-08T15:58:59.087Z,478.47
2017-12-08T16:01:27.780Z,503.60
2017-12-08T16:03:56.548Z,546.07
2017-12-08T16:06:26.018Z,522.80
2017-12-08T16:08:54.785Z,564.20
2017-12-08T16:11:23.751Z,521.47
2017-12-08T16:13:52.373Z,530.73
2017-12-08T16:16:21.062Z,535.53
2017-12-08T16:18:50.739Z,558.00
2017-12-08T16:21:19.425Z,601.90
2017-12-08T16:23:48.091Z,658.23
2017-12-08T16:26:17.655Z,753.20
2017-12-08T16:28:46.351Z,761.83
2017-12-08T16:31:15.817Z,708.20
2017-12-08T16:33:45.683Z,709.40
2017-12-08T16:36:15.131Z,689.50
2017-12-08T16:38:43.824Z,579.57
2017-12-08T16:41:12.508Z,430.47
2017-12-08T16:43:41.196Z,330.70
2017-12-08T16:46:09.880Z,312.60
2017-12-08T16:48:38.874Z,258.33
2017-12-08T16:51:07.712Z,240.77
2017-12-08T16:53:37.167Z,313.50
2017-12-08T16:56:06.918Z,342.97
2017-12-08T16:58:36.383Z,349.80
2017-12-08T17:01:04.963Z,336.23
2017-12-08T17:03:33.852Z,333.93
2017-12-08T17:06:02.538Z,324.07
2017-12-08T17:08:31.125Z,343.83
2017-12-08T17:10:59.878Z,358.43
2017-12-08T17:13:28.546Z,396.07
2017-12-08T17:15:58.013Z,392.40
2017-12-08T17:18:26.998Z,355.87
2017-12-08T17:20:55.620Z,307.67
2017-12-08T17:23:25.042Z,287.50
2017-12-08T17:25:54.076Z,265.20
2017-12-08T17:28:22.860Z,237.00
2017-12-08T17:30:51.592Z,261.10
2017-12-08T17:33:21.258Z,322.30
2017-12-08T17:35:49.956Z,378.23
2017-12-08T17:38:18.532Z,377.03
2017-12-08T17:40:47.215Z,438.27
2017-12-08T17:43:15.859Z,489.67
2017-12-08T17:45:44.597Z,484.03
2017-12-08T17:48:13.378Z,496.63
2017-12-08T17:50:42.064Z,592.03
2017-12-08T17:53:10.702Z,606.27
2017-12-08T17:55:40.153Z,618.67
2017-12-08T17:58:08.934Z,589.70
2017-12-08T18:00:37.620Z,560.83
2017-12-08T18:03:06.314Z,445.00
2017-12-08T18:05:34.992Z,402.70
2017-12-08T18:08:03.786Z,340.20
2017-12-08T18:10:32.630Z,222.90
2017-12-08T18:13:01.273Z,254.40
2017-12-08T18:15:30.041Z,206.63
2017-12-08T18:17:58.983Z,242.23
2017-12-08T18:20:28.545Z,197.83
2017-12-08T18:22:57.244Z,209.33
2017-12-08T18:25:25.962Z,197.47
2017-12-08T18:27:55.454Z,186.93
2017-12-08T18:30:24.824Z,173.43
2017-12-08T18:32:53.608Z,158.10
2017-12-08T18:35:22.402Z,115.67
2017-12-08T18:37:51.124Z,108.47
2017-12-08T18:40:20.696Z,213.47
2017-12-08T18:42:49.381Z,119.87
2017-12-08T18:45:18.127Z,109.17
2017-12-08T18:47:47.145Z,99.83
2017-12-08T18:50:15.887Z,78.37
2017-12-08T18:52:45.355Z,69.83
2017-12-08T18:55:14.445Z,81.93
2017-12-08T18:57:43.024Z,83.83
2017-12-08T19:00:11.760Z,93.23
2017-12-08T19:02:41.296Z,89.60
2017-12-08T19:05:10.020Z,109.13
2017-12-08T19:07:38.698Z,150.77
2017-12-08T19:10:07.626Z,172.53
2017-12-08T19:12:37.091Z,157.90
2017-12-08T19:15:05.875Z,144.43
2017-12-08T19:17:34.770Z,196.57
2017-12-08T19:20:03.474Z,195.90
2017-12-08T19:22:32.192Z,188.47
2017-12-08T19:25:00.938Z,214.97
2017-12-08T19:27:29.720Z,251.90
2017-12-08T19:29:58.401Z,208.83
2017-12-08T19:32:27.644Z,217.97
2017-12-08T19:34:56.427Z,233.57
2017-12-08T19:37:25.120Z,302.87
2017-12-08T19:39:53.812Z,241.97
2017-12-08T19:42:22.595Z,230.50
2017-12-08T19:44:51.276Z,361.87
2017-12-08T19:47:20.119Z,478.13
2017-12-08T19:49:48.850Z,528.07
2017-12-08T19:52:17.536Z,446.57
2017-12-08T19:54:46.429Z,406.03
2017-12-08T19:57:15.215Z,362.17
2017-12-08T19:59:43.904Z,316.00
2017-12-08T20:02:12.647Z,324.57
2017-12-08T20:04:42.095Z,309.83
2017-12-08T20:07:10.781Z,348.03
2017-12-08T20:09:40.082Z,265.63
2017-12-08T20:19:20.402Z,257.07
2017-12-08T20:21:49.117Z,236.97
2017-12-08T20:24:18.680Z,221.50
2017-12-08T20:26:47.377Z,251.03
2017-12-08T20:29:16.147Z,247.30
2017-12-08T20:31:44.836Z,283.27
2017-12-08T20:34:13.576Z,355.30
2017-12-08T20:36:43.030Z,382.90
2017-12-08T20:39:11.611Z,312.43
2017-12-08T20:41:40.501Z,294.23
2017-12-08T20:44:09.151Z,255.70
2017-12-08T20:46:37.872Z,257.07
2017-12-08T20:49:06.608Z,275.27
2017-12-08T20:51:35.379Z,224.63
2017-12-08T20:54:04.138Z,212.17
2017-12-08T20:56:32.922Z,192.67
2017-12-08T20:59:01.509Z,235.47
2017-12-08T21:01:30.196Z,232.27
2017-12-08T21:03:59.039Z,225.00
2017-12-08T21:06:28.535Z,298.67
2017-12-08T21:08:57.998Z,387.03
2017-12-08T21:11:26.989Z,435.63
2017-12-08T21:13:55.776Z,425.83
2017-12-08T21:16:24.455Z,411.70
2017-12-08T21:18:53.355Z,370.43
2017-12-08T21:21:21.987Z,205.57
2017-12-08T21:23:51.434Z,166.40
2017-12-08T21:26:21.255Z,112.03
2017-12-08T21:28:50.045Z,133.37
2017-12-08T21:31:18.727Z,269.87
2017-12-08T21:33:47.575Z,439.53
2017-12-08T21:36:16.133Z,458.30
2017-12-08T21:38:45.706Z,425.37
2017-12-08T21:41:14.699Z,402.90
2017-12-08T21:43:43.284Z,302.07
2017-12-08T21:46:11.971Z,278.97
2017-12-08T21:48:40.756Z,246.53
2017-12-08T21:51:09.403Z,255.80
2017-12-08T21:53:38.128Z,258.47
2017-12-08T21:56:06.863Z,246.83
2017-12-08T21:58:36.322Z,255.97
2017-12-08T22:01:05.154Z,242.33
2017-12-08T22:03:33.892Z,236.03
2017-12-08T22:06:02.608Z,252.70
2017-12-08T22:08:32.801Z,271.33
2017-12-08T22:11:01.541Z,287.47
2017-12-08T22:13:31.092Z,279.37
2017-12-08T22:15:59.887Z,300.77
2017-12-08T22:18:28.723Z,293.93
2017-12-08T22:20:58.136Z,303.80
2017-12-08T22:23:26.866Z,331.73
2017-12-08T22:25:55.703Z,309.50
2017-12-08T22:28:24.340Z,297.97
2017-12-08T22:30:53.086Z,286.07
2017-12-08T22:33:22.115Z,246.27
2017-12-08T22:35:50.801Z,239.10
2017-12-08T22:38:19.390Z,215.80
2017-12-08T22:40:48.106Z,250.57
2017-12-08T22:43:17.569Z,174.03
2017-12-08T22:45:46.268Z,229.00
2017-12-08T22:48:15.009Z,260.70
2017-12-08T22:50:43.676Z,278.30
2017-12-08T22:53:13.140Z,281.63
2017-12-08T22:55:41.986Z,304.80
2017-12-08T22:58:10.548Z,327.63
2017-12-08T23:00:39.304Z,337.50
2017-12-08T23:03:08.339Z,335.10
2017-12-08T23:05:37.757Z,306.13
2017-12-08T23:08:06.451Z,303.53
2017-12-08T23:10:35.276Z,304.03
2017-12-08T23:13:03.958Z,308.53
2017-12-08T23:15:32.600Z,277.17
2017-12-08T23:18:02.096Z,252.43
2017-12-08T23:20:31.448Z,249.27
2017-12-08T23:23:00.135Z,345.87
2017-12-08T23:25:28.774Z,384.07
2017-12-08T23:27:57.416Z,375.47
2017-12-08T23:30:26.189Z,326.87
2017-12-08T23:32:54.924Z,396.53
2017-12-08T23:35:24.385Z,373.53
2017-12-08T23:37:53.012Z,300.43
2017-12-08T23:40:22.683Z,272.50
2017-12-08T23:42:51.365Z,257.20
2017-12-08T23:45:19.945Z,257.90
2017-12-08T23:47:49.710Z,272.10
2017-12-08T23:50:18.344Z,346.43
2017-12-08T23:52:46.931Z,340.30
2017-12-08T23:55:15.611Z,329.03
2017-12-08T23:57:44.301Z,327.17
